Thorsby, AL (35171)

09:54 PM CST am 30. Januar 2015 (GMT -0600)
APRSWXNET Union Grove AL US | Change Station
CLOSE
Current Station
Persönliche Wetterstationen
Location: Jemison, AL
Höhe: 741 ft
Wetterstationen in der Umgebung

Höhe 741 ft 32.96 °N, 86.67 °W | Updated 30 minutes ago

Teils Wolkig
Teils Wolkig
36 °F
gefühlte 36 °F
N
0
Wind Wechselnd Wind aus Ost-Nordost
Gusts 3.0 mph

Heute
Max. -- | schwach -- °F
--% Regenrisiko
Gestern
Max. -- | schwach -- °F
Precip. -- inch
6:43 AM 5:17 PM
Zweites Viertel, 87% visible
Druck 30.40 inch
Sichtweite 10.0 Meilen
Wolken Heiter
Windchill 36 °F
Taupunkt 25 °F
Feuchtigkeit 65%
Regen 0.00 inch
Schneehöhe Nicht verfügbar..
UV 0 von 12
Pollen 4.40 von 12
Luftqualität Nicht verfügbar..
Flu Activity Nicht verfügbar..
METAR KEET 310253Z AUTO 00000KT 10SM CLR 03/M03 A3039 RMK AO2 SLP292 T00331033 50009

More Conditions Fewer Conditions

Druck 30.40 inch
Sichtweite 10.0 Meilen
Wolken Heiter
Windchill 36 °F
Taupunkt 25 °F
Feuchtigkeit 65%
Regen 0.00 inch
Schneehöhe Nicht verfügbar..
UV 0 von 12
Pollen 4.40 von 12
Luftqualität Nicht verfügbar..
Flu Activity Nicht verfügbar..
METAR KEET 310253Z AUTO 00000KT 10SM CLR 03/M03 A3039 RMK AO2 SLP292 T00331033 50009

More Conditions Fewer Conditions

10-Day Weather Forecast

Almanac

Astronomie

Jan. 30, 2015 Aufgang Untergang
Genaue Zeit
Bürgerliche Dämmerung
Nautische Dämmerung
Astronomische Dämmerung
Mond
Länge des sichtbaren Lichts
Tageslänge
Tomorrow will be .
, % of the Moon is Illuminated

Heutige Rekorde

State Highs State Lows

Community

WunderPhotos

Upload Photos

1,791,994 Fotos hochgeladen!

WunderBlogs® & News

Nearby

Luftqualität

  Luftqualität LQ Index Schadstoff
Not available.

Schneehöhe

Station Depth Höhe

Erdbebenaktivität

Stadt Distance Mag. Time & Date
Minimum magnitude displayed is 2.5.

küstennahe Wassertemperaturen

Ort Temperatur

Wetterstationen in der Umgebung